createdAt,value
2017-09-28T00:00:02.151Z,0
2017-09-28T00:01:10.987Z,0
2017-09-28T00:02:19.821Z,0
2017-09-28T00:03:28.654Z,0
2017-09-28T00:04:37.688Z,0
2017-09-28T00:05:46.522Z,0
2017-09-28T00:06:55.685Z,0
2017-09-28T00:08:04.519Z,0
2017-09-28T00:09:13.352Z,0
2017-09-28T00:10:22.335Z,0
2017-09-28T00:11:31.167Z,0
2017-09-28T00:12:40.002Z,0
2017-09-28T00:13:48.836Z,0
2017-09-28T00:14:57.670Z,0
2017-09-28T00:16:06.554Z,0
2017-09-28T00:17:15.388Z,0
2017-09-28T00:18:24.223Z,0
2017-09-28T00:19:33.054Z,0
2017-09-28T00:20:41.887Z,0
2017-09-28T00:21:50.876Z,0
2017-09-28T00:23:00.038Z,0
2017-09-28T00:24:08.870Z,0
2017-09-28T00:25:17.703Z,0
2017-09-28T00:26:26.537Z,0
2017-09-28T00:27:35.368Z,0
2017-09-28T00:28:44.198Z,0
2017-09-28T00:29:53.031Z,0
2017-09-28T00:31:01.862Z,0
2017-09-28T00:32:10.697Z,0
2017-09-28T00:33:19.680Z,0
2017-09-28T00:34:28.514Z,0
2017-09-28T00:35:37.347Z,0
2017-09-28T00:36:46.184Z,0
2017-09-28T00:37:55.016Z,0
2017-09-28T00:39:04.001Z,0
2017-09-28T00:40:12.834Z,0
2017-09-28T00:41:21.670Z,0
2017-09-28T00:42:30.505Z,0
2017-09-28T00:43:39.338Z,0
2017-09-28T00:44:48.476Z,0
2017-09-28T00:45:57.310Z,0
2017-09-28T00:47:06.144Z,0
2017-09-28T00:48:14.979Z,0
2017-09-28T00:49:23.811Z,0
2017-09-28T00:50:33.129Z,0
2017-09-28T00:51:41.963Z,0
2017-09-28T00:52:50.792Z,0
2017-09-28T00:53:59.624Z,0
2017-09-28T00:55:08.457Z,0
2017-09-28T00:56:17.490Z,0
2017-09-28T00:57:26.329Z,0
2017-09-28T00:58:35.162Z,0
2017-09-28T00:59:43.995Z,0
2017-09-28T01:00:52.829Z,0
2017-09-28T01:02:01.862Z,0
2017-09-28T01:03:10.692Z,0
2017-09-28T01:04:19.525Z,0
2017-09-28T01:05:28.360Z,0
2017-09-28T01:06:37.192Z,0
2017-09-28T01:07:46.327Z,0
2017-09-28T01:08:55.160Z,0
2017-09-28T01:10:03.992Z,0
2017-09-28T01:11:12.827Z,0
2017-09-28T01:12:21.660Z,0
2017-09-28T01:13:30.894Z,0
2017-09-28T01:14:39.727Z,0
2017-09-28T01:15:48.561Z,0
2017-09-28T01:16:57.396Z,0
2017-09-28T01:18:06.228Z,0
2017-09-28T01:19:15.112Z,0
2017-09-28T01:20:23.969Z,0
2017-09-28T01:21:33.108Z,0
2017-09-28T01:22:41.940Z,0
2017-09-28T01:23:50.773Z,0
2017-09-28T01:24:59.807Z,0
2017-09-28T01:26:08.641Z,0
2017-09-28T01:27:17.478Z,0
2017-09-28T01:28:26.313Z,0
2017-09-28T01:29:35.146Z,0
2017-09-28T01:30:44.029Z,0
2017-09-28T01:31:52.857Z,0
2017-09-28T01:33:01.697Z,0
2017-09-28T01:34:10.523Z,0
2017-09-28T01:35:19.357Z,0
2017-09-28T01:36:28.189Z,0
2017-09-28T01:37:37.021Z,0
2017-09-28T01:38:45.854Z,0
2017-09-28T01:39:54.687Z,0
2017-09-28T01:41:03.520Z,0
2017-09-28T01:42:12.732Z,0
2017-09-28T01:43:21.564Z,0
2017-09-28T01:44:30.398Z,0
2017-09-28T01:45:39.282Z,0
2017-09-28T01:46:48.114Z,0
2017-09-28T01:47:57.248Z,0
2017-09-28T01:49:06.081Z,0
2017-09-28T01:50:14.915Z,0
2017-09-28T01:51:23.749Z,0
2017-09-28T01:52:32.584Z,0
2017-09-28T01:53:41.666Z,0
2017-09-28T01:54:50.496Z,0
2017-09-28T01:55:59.330Z,0
2017-09-28T01:57:08.162Z,0
2017-09-28T01:58:16.994Z,0
2017-09-28T01:59:26.025Z,0
2017-09-28T02:00:34.859Z,0
2017-09-28T02:01:43.697Z,0
2017-09-28T02:02:52.530Z,0
2017-09-28T02:04:01.364Z,0
2017-09-28T02:05:10.346Z,0
2017-09-28T02:06:19.179Z,0
2017-09-28T02:07:28.011Z,0
2017-09-28T02:08:36.892Z,0
2017-09-28T02:09:45.725Z,0
2017-09-28T02:10:54.813Z,0
2017-09-28T02:12:03.643Z,0
2017-09-28T02:13:12.474Z,0
2017-09-28T02:14:21.307Z,0
2017-09-28T02:15:30.138Z,0
2017-09-28T02:16:39.072Z,0
2017-09-28T02:17:47.917Z,0
2017-09-28T02:18:56.738Z,0
2017-09-28T02:20:05.901Z,0
2017-09-28T02:21:14.734Z,0
2017-09-28T02:22:23.818Z,0
2017-09-28T02:23:32.653Z,0
2017-09-28T02:24:41.488Z,0
2017-09-28T02:25:50.322Z,0
2017-09-28T02:26:59.154Z,0
2017-09-28T02:28:08.041Z,0
2017-09-28T02:29:16.873Z,0
2017-09-28T02:30:25.707Z,0
2017-09-28T02:31:34.542Z,0
2017-09-28T02:32:43.372Z,0
2017-09-28T02:33:52.258Z,0
2017-09-28T02:35:01.093Z,0
2017-09-28T02:36:09.926Z,0
2017-09-28T02:37:19.089Z,0
2017-09-28T02:38:27.921Z,0
2017-09-28T02:39:36.903Z,0
2017-09-28T02:40:45.737Z,0
2017-09-28T02:41:54.568Z,0
2017-09-28T02:43:03.402Z,0
2017-09-28T02:44:12.236Z,0
2017-09-28T02:45:21.119Z,0
2017-09-28T02:46:29.955Z,0
2017-09-28T02:47:39.118Z,0
2017-09-28T02:48:47.951Z,0
2017-09-28T02:49:56.787Z,0
2017-09-28T02:51:05.621Z,0
2017-09-28T02:52:14.457Z,0
2017-09-28T02:53:23.293Z,0
2017-09-28T02:54:32.465Z,0
2017-09-28T02:55:41.300Z,0
2017-09-28T02:56:50.182Z,0
2017-09-28T02:57:59.018Z,0
2017-09-28T02:59:08.176Z,0
2017-09-28T03:00:17.009Z,0
2017-09-28T03:01:25.842Z,0
2017-09-28T03:02:34.675Z,0
2017-09-28T03:03:43.506Z,0
2017-09-28T03:04:52.339Z,0
2017-09-28T03:06:01.173Z,0
2017-09-28T03:07:10.007Z,0
2017-09-28T03:08:18.891Z,0
2017-09-28T03:09:28.062Z,0
2017-09-28T03:10:36.895Z,0
2017-09-28T03:11:45.731Z,0
2017-09-28T03:12:54.563Z,0
2017-09-28T03:14:03.497Z,0
2017-09-28T03:15:12.333Z,0
2017-09-28T03:16:21.165Z,0
2017-09-28T03:17:29.997Z,0
2017-09-28T03:18:38.830Z,0
2017-09-28T03:19:47.764Z,0
2017-09-28T03:20:56.600Z,0
2017-09-28T03:22:05.435Z,0
2017-09-28T03:23:14.268Z,0
2017-09-28T03:24:23.101Z,0
2017-09-28T03:25:32.240Z,0
2017-09-28T03:26:41.074Z,0
2017-09-28T03:27:49.905Z,0
2017-09-28T03:28:58.738Z,0
2017-09-28T03:30:07.572Z,0
2017-09-28T03:31:16.704Z,0
2017-09-28T03:32:25.536Z,0
2017-09-28T03:33:34.367Z,0
2017-09-28T03:34:43.200Z,0
2017-09-28T03:35:52.363Z,0
2017-09-28T03:37:01.296Z,0
2017-09-28T03:38:10.126Z,0
2017-09-28T03:39:18.956Z,0
2017-09-28T03:40:27.790Z,0
2017-09-28T03:41:36.623Z,0
2017-09-28T03:42:45.607Z,0
2017-09-28T03:43:54.440Z,0
2017-09-28T03:45:03.276Z,0
2017-09-28T03:46:12.108Z,0
2017-09-28T03:47:20.941Z,0
2017-09-28T03:48:29.826Z,0
2017-09-28T03:49:38.657Z,0
2017-09-28T03:50:47.487Z,0
2017-09-28T03:51:56.316Z,0
2017-09-28T03:53:05.149Z,0
2017-09-28T03:54:14.284Z,0
2017-09-28T03:55:23.116Z,0
2017-09-28T03:56:31.950Z,0
2017-09-28T03:57:40.783Z,0
2017-09-28T03:58:49.616Z,0
2017-09-28T03:59:58.598Z,0
2017-09-28T04:01:07.432Z,0
2017-09-28T04:02:16.261Z,0
2017-09-28T04:03:25.092Z,0
2017-09-28T04:04:33.925Z,0
2017-09-28T04:05:42.809Z,0
2017-09-28T04:06:51.642Z,0
2017-09-28T04:08:00.476Z,0
2017-09-28T04:09:09.311Z,0
2017-09-28T04:10:18.143Z,0
2017-09-28T04:11:27.025Z,0
2017-09-28T04:12:35.860Z,0
2017-09-28T04:13:44.694Z,0
2017-09-28T04:14:53.528Z,0
2017-09-28T04:16:02.362Z,0
2017-09-28T04:17:11.396Z,0
2017-09-28T04:18:20.229Z,0
2017-09-28T04:19:29.063Z,0
2017-09-28T04:20:37.896Z,0
2017-09-28T04:21:47.106Z,0
2017-09-28T04:22:56.089Z,0
2017-09-28T04:24:04.921Z,0
2017-09-28T04:25:13.753Z,0
2017-09-28T04:26:22.587Z,0
2017-09-28T04:27:31.421Z,0
2017-09-28T04:28:40.406Z,0
2017-09-28T04:29:49.240Z,0
2017-09-28T04:30:58.076Z,0
2017-09-28T04:32:06.912Z,0
2017-09-28T04:33:15.746Z,0
2017-09-28T04:34:24.579Z,0
2017-09-28T04:35:34.095Z,0
2017-09-28T04:36:42.928Z,0
2017-09-28T04:37:51.762Z,0
2017-09-28T04:39:00.597Z,0
2017-09-28T04:40:09.428Z,0
2017-09-28T04:41:18.260Z,0
2017-09-28T04:42:27.095Z,0
2017-09-28T04:43:35.928Z,0
2017-09-28T04:44:44.761Z,0
2017-09-28T04:45:53.593Z,0
2017-09-28T04:47:02.430Z,0
2017-09-28T04:48:11.257Z,0
2017-09-28T04:49:20.091Z,0
2017-09-28T04:50:28.924Z,0
2017-09-28T04:51:37.757Z,0
2017-09-28T04:52:46.589Z,0
2017-09-28T04:53:55.421Z,0
2017-09-28T04:55:04.254Z,0
2017-09-28T04:56:13.089Z,0
2017-09-28T04:57:21.922Z,0
2017-09-28T04:58:30.756Z,4
2017-09-28T04:59:39.591Z,4
2017-09-28T05:00:48.426Z,0
2017-09-28T05:01:57.258Z,4
2017-09-28T05:03:06.422Z,4
2017-09-28T05:04:15.265Z,4
2017-09-28T05:05:24.316Z,8
2017-09-28T05:06:33.168Z,8
2017-09-28T05:07:42.002Z,8
2017-09-28T05:08:51.176Z,12
2017-09-28T05:10:00.344Z,12
2017-09-28T05:11:09.285Z,12
2017-09-28T05:12:18.167Z,16
2017-09-28T05:13:26.999Z,20
2017-09-28T05:14:35.835Z,20
2017-09-28T05:15:44.669Z,24
2017-09-28T05:16:53.886Z,28
2017-09-28T05:18:02.718Z,32
2017-09-28T05:19:11.554Z,36
2017-09-28T05:20:20.386Z,44
2017-09-28T05:21:29.219Z,52
2017-09-28T05:22:38.255Z,56
2017-09-28T05:23:47.394Z,64
2017-09-28T05:24:56.228Z,68
2017-09-28T05:26:05.066Z,76
2017-09-28T05:27:13.900Z,88
2017-09-28T05:28:22.884Z,100
2017-09-28T05:29:31.718Z,116
2017-09-28T05:30:40.552Z,128
2017-09-28T05:31:49.385Z,144
2017-09-28T05:32:58.219Z,160
2017-09-28T05:34:07.253Z,180
2017-09-28T05:35:16.418Z,196
2017-09-28T05:36:25.253Z,208
2017-09-28T05:37:34.087Z,216
2017-09-28T05:38:42.921Z,224
2017-09-28T05:39:51.936Z,240
2017-09-28T05:41:00.841Z,252
2017-09-28T05:42:09.773Z,268
2017-09-28T05:43:18.731Z,292
2017-09-28T05:44:27.598Z,312
2017-09-28T05:45:36.582Z,332
2017-09-28T05:46:45.416Z,360
2017-09-28T05:47:54.252Z,392
2017-09-28T05:49:03.087Z,416
2017-09-28T05:50:11.920Z,424
2017-09-28T05:51:21.234Z,444
2017-09-28T05:52:30.066Z,444
2017-09-28T05:53:38.898Z,452
2017-09-28T05:54:47.732Z,440
2017-09-28T05:55:56.564Z,448
2017-09-28T05:57:05.397Z,444
2017-09-28T05:58:14.231Z,436
2017-09-28T05:59:23.067Z,424
2017-09-28T06:00:31.899Z,420
2017-09-28T06:01:40.732Z,440
2017-09-28T06:02:49.565Z,444
2017-09-28T06:03:58.397Z,504
2017-09-28T06:05:07.237Z,520
2017-09-28T06:06:16.400Z,500
2017-09-28T06:07:25.232Z,512
2017-09-28T06:08:34.069Z,532
2017-09-28T06:09:42.904Z,540
2017-09-28T06:10:51.739Z,548
2017-09-28T06:12:00.570Z,528
2017-09-28T06:13:09.406Z,552
2017-09-28T06:14:18.239Z,548
2017-09-28T06:15:27.073Z,532
2017-09-28T06:16:35.907Z,500
2017-09-28T06:17:44.740Z,464
2017-09-28T06:18:53.577Z,444
2017-09-28T06:20:02.412Z,444
2017-09-28T06:21:11.245Z,468
2017-09-28T06:22:20.227Z,480
2017-09-28T06:23:29.063Z,504
2017-09-28T06:24:38.230Z,516
2017-09-28T06:25:47.092Z,548
2017-09-28T06:26:55.899Z,616
2017-09-28T06:28:04.834Z,612
2017-09-28T06:29:13.668Z,648
2017-09-28T06:30:22.501Z,700
2017-09-28T06:31:31.337Z,736
2017-09-28T06:32:40.170Z,688
2017-09-28T06:33:49.103Z,716
2017-09-28T06:34:57.940Z,748
2017-09-28T06:36:06.774Z,796
2017-09-28T06:37:15.612Z,904
2017-09-28T06:38:25.108Z,980
2017-09-28T06:39:34.093Z,928
2017-09-28T06:40:42.928Z,940
2017-09-28T06:41:51.772Z,964
2017-09-28T06:43:00.608Z,860
2017-09-28T06:44:09.437Z,844
2017-09-28T06:45:18.321Z,1028
2017-09-28T06:46:27.155Z,1104
2017-09-28T06:47:35.988Z,1124
2017-09-28T06:48:44.825Z,1180
2017-09-28T06:49:53.989Z,1068
2017-09-28T06:51:03.073Z,1020
2017-09-28T06:52:11.910Z,1064
2017-09-28T06:53:20.745Z,1172
2017-09-28T06:54:29.583Z,1276
2017-09-28T06:55:38.417Z,1204
2017-09-28T06:56:47.552Z,1332
2017-09-28T06:57:56.389Z,1436
2017-09-28T06:59:05.222Z,1432
2017-09-28T07:00:14.057Z,1436
2017-09-28T07:01:22.891Z,1512
2017-09-28T07:02:31.875Z,1564
2017-09-28T07:03:40.729Z,1456
2017-09-28T07:04:49.563Z,1476
2017-09-28T07:05:58.430Z,1640
2017-09-28T07:07:07.273Z,1748
2017-09-28T07:08:16.174Z,1700
2017-09-28T07:09:25.095Z,1996
2017-09-28T07:10:33.947Z,1904
2017-09-28T07:11:42.817Z,1748
2017-09-28T07:12:51.667Z,1688
2017-09-28T07:14:00.560Z,1604
2017-09-28T07:15:09.396Z,1456
2017-09-28T07:16:18.236Z,1384
2017-09-28T07:17:27.448Z,1464
2017-09-28T07:18:36.281Z,1404
2017-09-28T07:19:45.115Z,1484
2017-09-28T07:20:53.948Z,1428
2017-09-28T07:22:02.781Z,1420
2017-09-28T07:23:11.615Z,1356
2017-09-28T07:24:20.449Z,1412
2017-09-28T07:25:29.484Z,1784
2017-09-28T07:26:38.316Z,1896
2017-09-28T07:27:47.153Z,1948
2017-09-28T07:28:55.987Z,1936
2017-09-28T07:30:05.179Z,1784
2017-09-28T07:31:14.068Z,1584
2017-09-28T07:32:22.902Z,1812
2017-09-28T07:33:32.087Z,2056
2017-09-28T07:34:40.954Z,1792
2017-09-28T07:35:49.793Z,1740
2017-09-28T07:36:58.680Z,1732
2017-09-28T07:38:07.515Z,1680
2017-09-28T07:39:16.350Z,1616
2017-09-28T07:40:25.302Z,1548
2017-09-28T07:41:34.186Z,1648
2017-09-28T07:42:43.122Z,1668
2017-09-28T07:43:51.958Z,1832
2017-09-28T07:45:00.797Z,1920
2017-09-28T07:46:10.293Z,2016
2017-09-28T07:47:19.129Z,1908
2017-09-28T07:48:28.065Z,1668
2017-09-28T07:49:36.902Z,1656
2017-09-28T07:50:45.737Z,1636
2017-09-28T07:51:54.572Z,1820
2017-09-28T07:53:03.405Z,1972
2017-09-28T07:54:12.341Z,1988
2017-09-28T07:55:21.175Z,2096
2017-09-28T07:56:30.009Z,2108
2017-09-28T07:57:38.841Z,2032
2017-09-28T07:58:47.677Z,2052
2017-09-28T07:59:56.509Z,2064
2017-09-28T08:01:05.344Z,2156
2017-09-28T08:02:14.180Z,2372
2017-09-28T08:03:23.017Z,2100
2017-09-28T08:04:31.853Z,2248
2017-09-28T08:05:40.738Z,2080
2017-09-28T08:06:49.574Z,2056
2017-09-28T08:07:58.428Z,1628
2017-09-28T08:09:07.298Z,1824
2017-09-28T08:10:16.135Z,2040
2017-09-28T08:11:25.018Z,1828
2017-09-28T08:12:34.213Z,1944
2017-09-28T08:13:43.047Z,2176
2017-09-28T08:14:51.883Z,1940
2017-09-28T08:16:00.769Z,2008
2017-09-28T08:17:09.857Z,2052
2017-09-28T08:18:18.689Z,1716
2017-09-28T08:19:27.524Z,1548
2017-09-28T08:20:36.358Z,1572
2017-09-28T08:21:45.191Z,1672
2017-09-28T08:22:54.329Z,1676
2017-09-28T08:24:03.167Z,1592
2017-09-28T08:25:12.335Z,1528
2017-09-28T08:26:21.169Z,1484
2017-09-28T08:27:30.003Z,1440
2017-09-28T08:28:38.889Z,1452
2017-09-28T08:29:47.725Z,1568
2017-09-28T08:30:56.557Z,1624
2017-09-28T08:32:05.394Z,1688
2017-09-28T08:33:14.236Z,1828
2017-09-28T08:34:23.081Z,2380
2017-09-28T08:35:32.260Z,2676
2017-09-28T08:36:41.096Z,2680
2017-09-28T08:37:50.270Z,2988
2017-09-28T08:38:59.105Z,2900
2017-09-28T08:40:08.680Z,2692
2017-09-28T08:41:17.511Z,2376
2017-09-28T08:42:26.346Z,2976
2017-09-28T08:43:35.179Z,3204
2017-09-28T08:44:44.013Z,3564
2017-09-28T08:45:52.899Z,3420
2017-09-28T08:47:01.733Z,3280
2017-09-28T08:48:10.579Z,3272
2017-09-28T08:49:19.418Z,3552
2017-09-28T08:50:28.254Z,3816
2017-09-28T08:51:37.290Z,3824
2017-09-28T08:52:46.125Z,3672
2017-09-28T08:53:54.960Z,3480
2017-09-28T08:55:03.795Z,3748
2017-09-28T08:56:12.628Z,3556
2017-09-28T08:57:21.562Z,3540
2017-09-28T08:58:30.394Z,3348
2017-09-28T08:59:39.230Z,3328
2017-09-28T09:00:48.066Z,3468
2017-09-28T09:01:56.904Z,3132
2017-09-28T09:03:05.840Z,2968
2017-09-28T09:04:14.677Z,2700
2017-09-28T09:05:23.513Z,2764
2017-09-28T09:06:32.347Z,2832
2017-09-28T09:07:41.184Z,3244
2017-09-28T09:08:50.020Z,3104
2017-09-28T09:09:58.855Z,3176
2017-09-28T09:11:07.696Z,3612
2017-09-28T09:12:16.531Z,3352
2017-09-28T09:13:25.366Z,3216
2017-09-28T09:14:34.569Z,3216
2017-09-28T09:15:43.405Z,3388
2017-09-28T09:16:52.237Z,3612
2017-09-28T09:18:01.071Z,2804
2017-09-28T09:19:10.247Z,2472
2017-09-28T09:20:19.563Z,2668
2017-09-28T09:21:28.403Z,2668
2017-09-28T09:22:37.571Z,2748
2017-09-28T09:23:46.406Z,3224
2017-09-28T09:24:55.241Z,3608
2017-09-28T09:26:04.378Z,3968
2017-09-28T09:27:13.217Z,3824
2017-09-28T09:28:22.050Z,4320
2017-09-28T09:29:30.883Z,3556
2017-09-28T09:30:39.718Z,3572
2017-09-28T09:31:48.703Z,3532
2017-09-28T09:32:57.877Z,3600
2017-09-28T09:34:06.711Z,3328
2017-09-28T09:35:15.543Z,3040
2017-09-28T09:36:24.379Z,2824
2017-09-28T09:37:33.267Z,2764
2017-09-28T09:38:42.101Z,2536
2017-09-28T09:39:50.936Z,2604
2017-09-28T09:40:59.774Z,2528
2017-09-28T09:42:08.609Z,2696
2017-09-28T09:43:17.648Z,3000
2017-09-28T09:44:26.483Z,3212
2017-09-28T09:45:35.320Z,2992
2017-09-28T09:46:44.166Z,2928
2017-09-28T09:47:53.000Z,2932
2017-09-28T09:49:01.892Z,2976
2017-09-28T09:50:10.722Z,3012
2017-09-28T09:51:19.559Z,2972
2017-09-28T09:52:28.393Z,3188
2017-09-28T09:53:37.230Z,3184
2017-09-28T09:54:46.215Z,3388
2017-09-28T09:55:55.056Z,4720
2017-09-28T09:57:03.890Z,4124
2017-09-28T09:58:12.726Z,4012
2017-09-28T09:59:21.562Z,3700
2017-09-28T10:00:30.449Z,3488
2017-09-28T10:01:39.621Z,3344
2017-09-28T10:02:48.458Z,3532
2017-09-28T10:03:57.296Z,3708
2017-09-28T10:05:06.130Z,3520
2017-09-28T10:06:15.064Z,3432
2017-09-28T10:07:23.898Z,3536
2017-09-28T10:08:32.734Z,3336
2017-09-28T10:09:41.567Z,3388
2017-09-28T10:10:50.402Z,3472
2017-09-28T10:11:59.389Z,3736
2017-09-28T10:13:08.575Z,3936
2017-09-28T10:14:17.411Z,3992
2017-09-28T10:15:26.248Z,3720
2017-09-28T10:16:35.083Z,3800
2017-09-28T10:17:43.919Z,3808
2017-09-28T10:18:52.754Z,3860
2017-09-28T10:20:01.591Z,3980
2017-09-28T10:21:10.426Z,4148
2017-09-28T10:22:19.260Z,3672
2017-09-28T10:23:28.247Z,3808
2017-09-28T10:24:37.081Z,3488
2017-09-28T10:25:46.249Z,3200
2017-09-28T10:26:55.425Z,3004
2017-09-28T10:28:04.261Z,3176
2017-09-28T10:29:13.096Z,2980
2017-09-28T10:30:21.928Z,3004
2017-09-28T10:31:30.764Z,3088
2017-09-28T10:32:39.600Z,3088
2017-09-28T10:33:48.436Z,3232
2017-09-28T10:34:57.424Z,3528
2017-09-28T10:36:06.263Z,3664
2017-09-28T10:37:15.098Z,3528
2017-09-28T10:38:23.934Z,3584
2017-09-28T10:39:32.770Z,3396
2017-09-28T10:40:41.905Z,3312
2017-09-28T10:41:50.740Z,3388
2017-09-28T10:42:59.578Z,3028
2017-09-28T10:44:08.412Z,2912
2017-09-28T10:45:17.249Z,2976
2017-09-28T10:46:26.238Z,3032
2017-09-28T10:47:35.074Z,3568
2017-09-28T10:48:43.906Z,3776
2017-09-28T10:49:52.743Z,3648
2017-09-28T10:51:01.579Z,3964
2017-09-28T10:52:10.663Z,4020
2017-09-28T10:53:19.498Z,3860
2017-09-28T10:54:28.333Z,3656
2017-09-28T10:55:37.171Z,3200
2017-09-28T10:56:46.005Z,2976
2017-09-28T10:57:54.942Z,2996
2017-09-28T10:59:03.779Z,2824
2017-09-28T11:00:12.612Z,2588
2017-09-28T11:01:21.446Z,2708
2017-09-28T11:02:30.282Z,2484
2017-09-28T11:03:39.219Z,2636
2017-09-28T11:04:48.054Z,3112
2017-09-28T11:05:56.887Z,3556
2017-09-28T11:07:05.725Z,3552
2017-09-28T11:08:14.562Z,3412
2017-09-28T11:09:23.601Z,3436
2017-09-28T11:10:32.435Z,3148
2017-09-28T11:11:41.272Z,4184
2017-09-28T11:12:50.107Z,4008
2017-09-28T11:13:58.943Z,3408
2017-09-28T11:15:08.082Z,4440
2017-09-28T11:16:16.914Z,3356
2017-09-28T11:17:25.750Z,4220
2017-09-28T11:18:34.584Z,3960
2017-09-28T11:19:43.420Z,4116
2017-09-28T11:20:52.457Z,3704
2017-09-28T11:22:01.292Z,3048
2017-09-28T11:23:10.130Z,3488
2017-09-28T11:24:18.968Z,3664
2017-09-28T11:25:27.803Z,2792
2017-09-28T11:26:36.688Z,2940
2017-09-28T11:27:45.524Z,2752
2017-09-28T11:28:54.361Z,2900
2017-09-28T11:30:03.201Z,3276
2017-09-28T11:31:12.038Z,2800
2017-09-28T11:32:20.923Z,3548
2017-09-28T11:33:29.760Z,2812
2017-09-28T11:34:38.593Z,2792
2017-09-28T11:35:47.429Z,2600
2017-09-28T11:36:56.264Z,2652
2017-09-28T11:38:05.201Z,2600
2017-09-28T11:39:14.040Z,2396
2017-09-28T11:40:22.875Z,2388
2017-09-28T11:41:31.708Z,2496
2017-09-28T11:42:40.544Z,2608
2017-09-28T11:43:49.427Z,3300
2017-09-28T11:44:58.263Z,2640
2017-09-28T11:46:07.100Z,2592
2017-09-28T11:47:15.937Z,2520
2017-09-28T11:48:24.774Z,3412
2017-09-28T11:49:33.861Z,2896
2017-09-28T11:50:42.695Z,2536
2017-09-28T11:51:51.538Z,2572
2017-09-28T11:53:00.372Z,2540
2017-09-28T11:54:09.538Z,2704
2017-09-28T11:55:18.424Z,2956
2017-09-28T11:56:27.258Z,2848
2017-09-28T11:57:36.096Z,2636
2017-09-28T11:58:44.928Z,2388
2017-09-28T11:59:53.772Z,2848
2017-09-28T12:01:02.900Z,3916
2017-09-28T12:02:11.735Z,4496
2017-09-28T12:03:20.571Z,4900
2017-09-28T12:04:29.407Z,4564
2017-09-28T12:05:38.243Z,3836
2017-09-28T12:06:47.330Z,3272
2017-09-28T12:07:56.168Z,3756
2017-09-28T12:09:05.054Z,3716
2017-09-28T12:10:13.896Z,3740
2017-09-28T12:11:22.733Z,3324
2017-09-28T12:12:31.971Z,3344
2017-09-28T12:13:40.807Z,3536
2017-09-28T12:14:49.677Z,3700
2017-09-28T12:15:58.848Z,3096
2017-09-28T12:17:07.685Z,2992
2017-09-28T12:18:16.523Z,2776
2017-09-28T12:19:25.360Z,2692
2017-09-28T12:20:34.198Z,2492
2017-09-28T12:21:43.036Z,2372
2017-09-28T12:22:51.873Z,2708
2017-09-28T12:24:00.761Z,2504
2017-09-28T12:25:09.597Z,2632
2017-09-28T12:26:18.436Z,2456
2017-09-28T12:27:27.270Z,2248
2017-09-28T12:28:36.438Z,2044
2017-09-28T12:29:45.580Z,2044
2017-09-28T12:30:54.411Z,2076
2017-09-28T12:32:03.248Z,2076
2017-09-28T12:33:12.085Z,2128
2017-09-28T12:34:20.952Z,2200
2017-09-28T12:35:30.189Z,2128
2017-09-28T12:36:39.024Z,2128
2017-09-28T12:37:47.860Z,2472
2017-09-28T12:38:56.697Z,2584
2017-09-28T12:40:05.532Z,2664
2017-09-28T12:41:14.368Z,2652
2017-09-28T12:42:23.200Z,2428
2017-09-28T12:43:32.369Z,2320
2017-09-28T12:44:41.537Z,2140
2017-09-28T12:45:50.374Z,2144
2017-09-28T12:46:59.410Z,2128
2017-09-28T12:48:08.244Z,2428
2017-09-28T12:49:17.079Z,2512
2017-09-28T12:50:25.915Z,3036
2017-09-28T12:51:34.748Z,2844
2017-09-28T12:52:43.885Z,3044
2017-09-28T12:53:52.735Z,2740
2017-09-28T12:55:01.569Z,2712
2017-09-28T12:56:10.738Z,2840
2017-09-28T12:57:19.581Z,2952
2017-09-28T12:58:28.469Z,2664
2017-09-28T12:59:37.306Z,2856
2017-09-28T13:00:46.165Z,3392
2017-09-28T13:01:55.000Z,3264
2017-09-28T13:03:03.837Z,3404
2017-09-28T13:04:13.016Z,3552
2017-09-28T13:05:21.855Z,3376
2017-09-28T13:06:30.693Z,3124
2017-09-28T13:07:39.529Z,3380
2017-09-28T13:08:48.368Z,3332
2017-09-28T13:09:57.203Z,2872
2017-09-28T13:11:06.041Z,2764
2017-09-28T13:12:14.880Z,3216
2017-09-28T13:13:23.717Z,3152
2017-09-28T13:14:32.554Z,3116
2017-09-28T13:15:41.392Z,3412
2017-09-28T13:16:50.227Z,3452
2017-09-28T13:17:59.069Z,3612
2017-09-28T13:19:07.902Z,3408
2017-09-28T13:20:16.735Z,3408
2017-09-28T13:21:25.907Z,3504
2017-09-28T13:22:34.741Z,3344
2017-09-28T13:23:43.583Z,3768
2017-09-28T13:24:52.454Z,3928
2017-09-28T13:26:01.304Z,3972
2017-09-28T13:27:10.142Z,3596
2017-09-28T13:28:18.978Z,3892
2017-09-28T13:29:28.117Z,3696
2017-09-28T13:30:36.955Z,3760
2017-09-28T13:31:45.793Z,3680
2017-09-28T13:32:54.661Z,3500
2017-09-28T13:34:03.503Z,3664
2017-09-28T13:35:12.540Z,3824
2017-09-28T13:36:21.375Z,4104
2017-09-28T13:37:30.215Z,4200
2017-09-28T13:38:39.090Z,4168
2017-09-28T13:39:47.928Z,4304
2017-09-28T13:40:56.865Z,4300
2017-09-28T13:42:05.701Z,4064
2017-09-28T13:43:14.540Z,4004
2017-09-28T13:44:23.375Z,3728
2017-09-28T13:45:32.213Z,3876
2017-09-28T13:46:41.156Z,3980
2017-09-28T13:47:50.001Z,4016
2017-09-28T13:48:58.844Z,3656
2017-09-28T13:50:07.680Z,3236
2017-09-28T13:51:16.523Z,3572
2017-09-28T13:52:25.455Z,3984
2017-09-28T13:53:34.293Z,3836
2017-09-28T13:54:43.132Z,3884
2017-09-28T13:55:52.302Z,3948
2017-09-28T13:57:01.139Z,3972
2017-09-28T13:58:10.243Z,3960
2017-09-28T13:59:19.079Z,3704
2017-09-28T14:00:27.912Z,3332
2017-09-28T14:01:36.748Z,3308
2017-09-28T14:02:45.580Z,2808
2017-09-28T14:03:54.718Z,2768
2017-09-28T14:05:03.553Z,2940
2017-09-28T14:06:12.390Z,3224
2017-09-28T14:07:21.562Z,3144
2017-09-28T14:08:30.398Z,2952
2017-09-28T14:09:39.534Z,2784
2017-09-28T14:10:48.371Z,2656
2017-09-28T14:11:57.209Z,2608
2017-09-28T14:13:06.048Z,2552
2017-09-28T14:14:14.885Z,2528
2017-09-28T14:15:23.772Z,2484
2017-09-28T14:16:32.612Z,2408
2017-09-28T14:17:41.448Z,2352
2017-09-28T14:18:50.283Z,2320
2017-09-28T14:19:59.453Z,2284
2017-09-28T14:21:08.393Z,2284
2017-09-28T14:22:17.231Z,2288
2017-09-28T14:23:26.066Z,2280
2017-09-28T14:24:34.905Z,2252
2017-09-28T14:25:43.741Z,2164
2017-09-28T14:26:52.728Z,2144
2017-09-28T14:28:01.566Z,1996
2017-09-28T14:29:10.401Z,2016
2017-09-28T14:30:19.242Z,1904
2017-09-28T14:31:28.412Z,1988
2017-09-28T14:32:37.350Z,2016
2017-09-28T14:33:46.190Z,2016
2017-09-28T14:34:55.029Z,1940
2017-09-28T14:36:03.868Z,1904
2017-09-28T14:37:12.723Z,1872
2017-09-28T14:38:21.558Z,1920
2017-09-28T14:39:30.396Z,2012
2017-09-28T14:40:39.334Z,2100
2017-09-28T14:41:48.172Z,2156
2017-09-28T14:42:57.342Z,2180
2017-09-28T14:44:06.331Z,2216
2017-09-28T14:45:15.174Z,2280
2017-09-28T14:46:24.004Z,2256
2017-09-28T14:47:32.839Z,2260
2017-09-28T14:48:41.705Z,2252
2017-09-28T14:49:50.697Z,2240
2017-09-28T14:50:59.542Z,2240
2017-09-28T14:52:08.382Z,2212
2017-09-28T14:53:17.221Z,2160
2017-09-28T14:54:26.059Z,2092
2017-09-28T14:55:34.945Z,1992
2017-09-28T14:56:43.785Z,1832
2017-09-28T14:57:52.617Z,1876
2017-09-28T14:59:01.455Z,1832
2017-09-28T15:00:10.294Z,1576
2017-09-28T15:01:19.531Z,1556
2017-09-28T15:02:28.368Z,1420
2017-09-28T15:03:37.203Z,1348
2017-09-28T15:04:46.045Z,1340
2017-09-28T15:05:54.912Z,1228
2017-09-28T15:07:03.872Z,1224
2017-09-28T15:08:12.709Z,1280
2017-09-28T15:09:21.911Z,1260
2017-09-28T15:10:30.769Z,1236
2017-09-28T15:11:39.605Z,1240
2017-09-28T15:12:48.599Z,1252
2017-09-28T15:13:57.764Z,1212
2017-09-28T15:15:06.607Z,1136
2017-09-28T15:16:15.442Z,1108
2017-09-28T15:17:24.279Z,1100
2017-09-28T15:18:33.363Z,1148
2017-09-28T15:19:42.197Z,1284
2017-09-28T15:20:51.034Z,1460
2017-09-28T15:21:59.868Z,1600
2017-09-28T15:23:09.051Z,1712
2017-09-28T15:24:18.227Z,1748
2017-09-28T15:25:27.063Z,1856
2017-09-28T15:26:35.899Z,1884
2017-09-28T15:27:44.736Z,1868
2017-09-28T15:28:53.575Z,1764
2017-09-28T15:30:02.461Z,1616
2017-09-28T15:31:11.632Z,1448
2017-09-28T15:32:20.804Z,1264
2017-09-28T15:33:29.640Z,1148
2017-09-28T15:34:38.477Z,1084
2017-09-28T15:35:47.650Z,1080
2017-09-28T15:36:56.449Z,1132
2017-09-28T15:38:05.284Z,1228
2017-09-28T15:39:14.122Z,1404
2017-09-28T15:40:22.959Z,1544
2017-09-28T15:41:31.946Z,1556
2017-09-28T15:42:40.782Z,1572
2017-09-28T15:43:49.617Z,1548
2017-09-28T15:44:58.452Z,1408
2017-09-28T15:46:07.289Z,1284
2017-09-28T15:47:16.173Z,1240
2017-09-28T15:48:25.008Z,1168
2017-09-28T15:49:33.845Z,1088
2017-09-28T15:50:42.680Z,1064